createdAt,value
2018-11-14T00:01:18.128Z,8.30
2018-11-14T00:04:21.634Z,8.20
2018-11-14T00:07:25.113Z,8.23
2018-11-14T00:10:28.520Z,8.63
2018-11-14T00:13:32.087Z,8.57
2018-11-14T00:16:35.756Z,7.90
2018-11-14T00:19:39.585Z,7.27
2018-11-14T00:22:44.304Z,7.00
2018-11-14T00:25:47.926Z,7.60
2018-11-14T00:28:51.383Z,7.07
2018-11-14T00:31:54.879Z,6.43
2018-11-14T00:34:58.887Z,6.90
2018-11-14T00:38:01.947Z,7.00
2018-11-14T00:41:05.390Z,6.93
2018-11-14T00:44:08.780Z,7.33
2018-11-14T00:47:12.180Z,7.17
2018-11-14T00:50:16.437Z,7.37
2018-11-14T00:53:19.902Z,7.20
2018-11-14T00:56:23.371Z,7.37
2018-11-14T00:59:26.913Z,6.63
2018-11-14T01:02:30.334Z,7.20
2018-11-14T01:05:34.884Z,7.83
2018-11-14T01:08:38.403Z,7.30
2018-11-14T01:11:42.986Z,7.50
2018-11-14T01:14:46.579Z,7.47
2018-11-14T01:17:50.086Z,7.27
2018-11-14T01:20:53.488Z,7.00
2018-11-14T01:23:58.175Z,6.37
2018-11-14T01:27:01.804Z,6.57
2018-11-14T01:30:08.400Z,7.03
2018-11-14T01:33:11.974Z,6.73
2018-11-14T01:36:15.502Z,6.30
2018-11-14T01:39:19.062Z,6.10
2018-11-14T01:42:22.628Z,6.80
2018-11-14T01:45:28.123Z,5.43
2018-11-14T01:48:33.609Z,6.10
2018-11-14T01:51:38.221Z,6.00
2018-11-14T01:54:41.688Z,5.70
2018-11-14T01:57:45.213Z,5.80
2018-11-14T02:00:48.690Z,5.70
2018-11-14T02:03:52.183Z,5.70
2018-11-14T02:06:55.699Z,5.60
2018-11-14T02:09:59.260Z,5.67
2018-11-14T02:13:02.784Z,6.13
2018-11-14T02:16:06.979Z,5.83
2018-11-14T02:19:10.412Z,5.27
2018-11-14T02:22:15.125Z,5.10
2018-11-14T02:25:18.801Z,5.00
2018-11-14T02:28:22.346Z,4.53
2018-11-14T02:31:25.929Z,4.20
2018-11-14T02:34:29.580Z,4.57
2018-11-14T02:37:33.090Z,5.20
2018-11-14T02:40:36.696Z,5.10
2018-11-14T02:43:40.380Z,5.07
2018-11-14T02:46:43.967Z,5.30
2018-11-14T02:49:47.561Z,5.27
2018-11-14T02:52:51.103Z,5.63
2018-11-14T02:56:09.552Z,5.80
2018-11-14T02:59:13.096Z,7.07
2018-11-14T03:02:16.640Z,7.70
2018-11-14T03:05:20.257Z,8.37
2018-11-14T03:08:24.037Z,7.60
2018-11-14T03:11:27.541Z,7.90
2018-11-14T03:14:31.172Z,7.50
2018-11-14T03:17:34.709Z,6.60
2018-11-14T03:20:38.378Z,6.87
2018-11-14T03:23:42.021Z,7.50
2018-11-14T03:26:45.522Z,8.17
2018-11-14T03:29:49.122Z,7.87
2018-11-14T03:32:52.674Z,8.80
2018-11-14T03:36:01.641Z,9.27
2018-11-14T03:39:08.646Z,8.40
2018-11-14T03:42:12.228Z,8.90
2018-11-14T03:45:16.303Z,9.57
2018-11-14T03:48:19.840Z,9.33
2018-11-14T03:51:23.441Z,10.13
2018-11-14T03:54:27.004Z,10.47
2018-11-14T03:57:30.560Z,11.23
2018-11-14T04:00:34.160Z,11.60
2018-11-14T04:03:38.312Z,11.47
2018-11-14T04:06:41.814Z,10.50
2018-11-14T04:09:45.568Z,11.00
2018-11-14T04:12:49.507Z,11.10
2018-11-14T04:15:54.128Z,9.80
2018-11-14T04:18:57.777Z,10.20
2018-11-14T04:22:01.314Z,11.70
2018-11-14T04:25:05.345Z,11.23
2018-11-14T04:28:08.897Z,13.03
2018-11-14T04:31:13.481Z,13.70
2018-11-14T04:34:17.002Z,12.77
2018-11-14T04:37:20.532Z,12.27
2018-11-14T04:40:24.942Z,11.97
2018-11-14T04:43:28.825Z,11.27
2018-11-14T04:46:32.395Z,10.87
2018-11-14T04:49:36.025Z,10.20
2018-11-14T04:52:39.829Z,10.10
2018-11-14T04:55:43.437Z,10.07
2018-11-14T04:58:46.877Z,11.17
2018-11-14T05:01:50.761Z,11.10
2018-11-14T05:04:55.613Z,10.33
2018-11-14T05:11:46.177Z,11.30
2018-11-14T05:15:13.449Z,12.03
2018-11-14T05:18:33.731Z,11.03
2018-11-14T05:25:14.835Z,10.83
2018-11-14T05:28:34.479Z,11.83
2018-11-14T05:35:19.106Z,11.43
2018-11-14T05:38:41.816Z,10.73
2018-11-14T05:45:43.836Z,9.43
2018-11-14T05:49:09.980Z,10.43
2018-11-14T05:52:31.013Z,10.73
2018-11-14T05:55:56.816Z,9.93
2018-11-14T06:03:31.032Z,10.83
2018-11-14T06:06:55.921Z,9.33
2018-11-14T06:10:20.299Z,10.43
2018-11-14T06:13:37.790Z,10.00
2018-11-14T06:16:57.290Z,10.73
2018-11-14T06:20:19.173Z,10.23
2018-11-14T06:23:38.175Z,9.90
2018-11-14T06:26:55.845Z,10.80
2018-11-14T06:30:16.415Z,11.20
2018-11-14T06:33:39.666Z,10.43
2018-11-14T06:37:02.000Z,10.53
2018-11-14T06:40:30.940Z,10.07
2018-11-14T06:47:20.410Z,10.13
2018-11-14T06:50:44.528Z,9.67
2018-11-14T06:54:04.601Z,9.23
2018-11-14T06:57:23.331Z,9.20
2018-11-14T07:00:37.962Z,9.27
2018-11-14T07:03:52.969Z,9.53
2018-11-14T07:07:02.972Z,9.70
2018-11-14T07:10:23.883Z,10.07
2018-11-14T07:13:38.771Z,9.27
2018-11-14T07:16:53.538Z,10.00
2018-11-14T07:20:06.048Z,10.13
2018-11-14T07:30:18.820Z,10.67
2018-11-14T07:33:22.543Z,11.00
2018-11-14T07:36:26.185Z,11.30
2018-11-14T07:39:29.647Z,11.43
2018-11-14T07:42:33.182Z,10.63
2018-11-14T07:45:36.799Z,11.10
2018-11-14T07:48:41.530Z,10.27
2018-11-14T07:51:45.091Z,11.53
2018-11-14T07:54:48.578Z,11.00
2018-11-14T07:57:52.013Z,11.13
2018-11-14T08:00:56.119Z,10.57
2018-11-14T08:04:00.230Z,11.43
2018-11-14T08:07:03.979Z,10.77
2018-11-14T08:10:09.844Z,11.47
2018-11-14T08:13:13.561Z,10.87
2018-11-14T08:16:17.268Z,11.60
2018-11-14T08:19:20.965Z,12.43
2018-11-14T08:22:24.674Z,11.87
2018-11-14T08:25:30.642Z,12.23
2018-11-14T08:28:34.332Z,12.03
2018-11-14T08:31:37.961Z,11.27
2018-11-14T08:34:41.673Z,12.10
2018-11-14T08:37:45.432Z,11.43
2018-11-14T08:40:48.976Z,12.07
2018-11-14T08:43:53.385Z,12.13
2018-11-14T08:46:56.852Z,12.27
2018-11-14T08:50:00.361Z,13.23
2018-11-14T08:53:04.181Z,13.43
2018-11-14T08:56:07.864Z,12.57
2018-11-14T08:59:12.436Z,12.40
2018-11-14T09:02:16.051Z,12.70
2018-11-14T09:05:19.521Z,12.00
2018-11-14T09:08:23.069Z,13.07
2018-11-14T09:11:26.826Z,12.83
2018-11-14T09:14:30.618Z,12.07
2018-11-14T09:17:35.121Z,12.00
2018-11-14T09:20:38.754Z,13.23
2018-11-14T09:23:42.273Z,12.23
2018-11-14T09:26:45.774Z,12.03
2018-11-14T09:29:49.389Z,12.43
2018-11-14T09:32:53.053Z,12.10
2018-11-14T09:35:56.493Z,12.87
2018-11-14T09:39:00.097Z,12.07
2018-11-14T09:42:03.831Z,12.17
2018-11-14T09:45:09.607Z,11.57
2018-11-14T09:48:13.213Z,11.33
2018-11-14T09:51:16.756Z,11.47
2018-11-14T09:54:20.313Z,11.53
2018-11-14T09:57:23.688Z,11.20
2018-11-14T10:00:28.555Z,11.87
2018-11-14T10:03:32.141Z,11.33
2018-11-14T10:06:35.566Z,10.83
2018-11-14T10:09:39.378Z,10.97
2018-11-14T10:12:43.184Z,11.40
2018-11-14T10:15:46.864Z,11.27
2018-11-14T10:18:51.568Z,10.87
2018-11-14T10:21:55.318Z,10.43
2018-11-14T10:24:58.838Z,11.00
2018-11-14T10:28:02.434Z,10.27
2018-11-14T10:31:06.097Z,9.47
2018-11-14T10:34:09.594Z,9.33
2018-11-14T10:37:14.141Z,9.83
2018-11-14T10:40:20.483Z,10.03
2018-11-14T10:43:24.047Z,9.50
2018-11-14T10:46:27.735Z,9.43
2018-11-14T10:49:31.404Z,9.50
2018-11-14T10:52:34.887Z,8.50
2018-11-14T10:55:38.866Z,9.70
2018-11-14T10:58:42.508Z,9.83
2018-11-14T11:01:51.361Z,9.03
2018-11-14T11:05:00.234Z,9.00
2018-11-14T11:08:09.505Z,9.50
2018-11-14T11:11:19.480Z,9.43
2018-11-14T11:14:28.333Z,7.60
2018-11-14T11:17:37.180Z,7.77
2018-11-14T11:20:40.881Z,7.77
2018-11-14T11:23:44.449Z,7.57
2018-11-14T11:26:48.099Z,7.23
2018-11-14T11:29:51.706Z,8.80
2018-11-14T11:32:55.172Z,7.20
2018-11-14T11:35:58.720Z,8.47
2018-11-14T11:39:02.546Z,7.13
2018-11-14T11:42:06.332Z,7.57
2018-11-14T11:45:09.864Z,7.33
2018-11-14T11:48:13.468Z,6.87
2018-11-14T11:51:17.022Z,5.97
2018-11-14T11:54:20.543Z,6.17
2018-11-14T11:57:24.013Z,6.50
2018-11-14T12:00:27.622Z,6.40
2018-11-14T12:03:31.014Z,6.67
2018-11-14T12:06:34.622Z,6.00
2018-11-14T12:09:38.047Z,5.90
2018-11-14T12:12:42.356Z,5.30
2018-11-14T12:15:46.061Z,5.37
2018-11-14T12:18:49.710Z,5.50
2018-11-14T12:21:53.480Z,4.83
2018-11-14T12:24:57.195Z,5.23
2018-11-14T12:28:00.671Z,5.73
2018-11-14T12:31:05.729Z,4.97
2018-11-14T12:34:09.019Z,5.13
2018-11-14T12:37:12.598Z,5.00
2018-11-14T12:40:16.091Z,5.37
2018-11-14T12:43:19.674Z,4.70
2018-11-14T12:46:23.054Z,4.60
2018-11-14T12:49:26.532Z,4.40
2018-11-14T12:52:30.065Z,4.10
2018-11-14T12:55:33.568Z,4.07
2018-11-14T12:58:37.105Z,4.23
2018-11-14T13:01:40.644Z,3.87
2018-11-14T13:04:44.072Z,4.00
2018-11-14T13:07:47.653Z,3.93
2018-11-14T13:10:51.197Z,4.00
2018-11-14T13:13:54.694Z,3.47
2018-11-14T13:16:58.094Z,3.53
2018-11-14T13:20:01.684Z,3.90
2018-11-14T13:23:05.159Z,3.53
2018-11-14T13:26:11.079Z,3.40
2018-11-14T13:29:14.604Z,3.47
2018-11-14T13:32:18.295Z,3.37
2018-11-14T13:35:22.650Z,3.27
2018-11-14T13:38:26.155Z,3.40
2018-11-14T13:41:30.752Z,3.20
2018-11-14T13:44:34.287Z,2.83
2018-11-14T13:47:38.268Z,3.33
2018-11-14T13:50:42.038Z,2.90
2018-11-14T13:53:46.018Z,6.53
2018-11-14T13:56:49.592Z,9.77
2018-11-14T13:59:53.041Z,10.83
2018-11-14T14:02:56.537Z,11.00
2018-11-14T14:06:00.025Z,11.73
2018-11-14T14:09:05.073Z,12.80
2018-11-14T14:12:08.639Z,13.17
2018-11-14T14:15:17.332Z,13.70
2018-11-14T14:18:20.805Z,14.77
2018-11-14T14:21:24.588Z,13.63
2018-11-14T14:24:28.018Z,13.97
2018-11-14T14:27:31.721Z,14.43
2018-11-14T14:30:35.291Z,14.20
2018-11-14T14:33:38.788Z,15.73
2018-11-14T14:36:42.561Z,15.67
2018-11-14T14:39:46.036Z,14.57
2018-11-14T14:42:49.578Z,15.43
2018-11-14T14:45:53.051Z,15.00
2018-11-14T14:48:56.543Z,16.73
2018-11-14T14:52:00.074Z,15.50
2018-11-14T14:55:03.563Z,18.37
2018-11-14T14:58:07.058Z,18.30
2018-11-14T15:01:10.608Z,19.07
2018-11-14T15:04:14.043Z,18.43
2018-11-14T15:07:17.483Z,19.40
2018-11-14T15:10:22.306Z,18.63
2018-11-14T15:13:25.767Z,19.43
2018-11-14T15:16:29.436Z,19.90
2018-11-14T15:19:32.925Z,18.13
2018-11-14T15:22:36.391Z,18.50
2018-11-14T15:25:39.834Z,19.00
2018-11-14T15:28:43.298Z,19.00
2018-11-14T15:31:46.916Z,19.73
2018-11-14T15:34:50.469Z,20.10
2018-11-14T15:37:54.012Z,19.00
2018-11-14T15:40:57.574Z,19.33
2018-11-14T15:44:01.149Z,20.00
2018-11-14T15:47:04.824Z,20.93
2018-11-14T15:50:13.713Z,22.23
2018-11-14T15:53:17.214Z,20.60
2018-11-14T15:56:20.947Z,20.83
2018-11-14T15:59:24.472Z,19.03
2018-11-14T16:02:29.062Z,19.17
2018-11-14T16:05:33.629Z,19.13
2018-11-14T16:08:37.118Z,17.87
2018-11-14T16:11:40.703Z,16.57
2018-11-14T16:14:44.248Z,16.67
2018-11-14T16:17:47.942Z,15.83
2018-11-14T16:20:51.482Z,16.30
2018-11-14T16:23:55.014Z,17.43
2018-11-14T16:26:58.564Z,17.90
2018-11-14T16:30:02.362Z,18.17
2018-11-14T16:33:07.162Z,17.60
2018-11-14T16:36:10.817Z,18.80
2018-11-14T16:39:14.358Z,19.03
2018-11-14T16:42:18.110Z,17.70
2018-11-14T16:45:21.670Z,17.47
2018-11-14T16:48:25.212Z,18.60
2018-11-14T16:51:28.752Z,19.93
2018-11-14T16:54:32.298Z,18.20
2018-11-14T16:57:36.420Z,16.70
2018-11-14T17:00:41.008Z,16.93
2018-11-14T17:03:45.845Z,16.43
2018-11-14T17:06:49.403Z,16.77
2018-11-14T17:09:53.060Z,17.87
2018-11-14T17:12:58.399Z,17.87
2018-11-14T17:16:02.164Z,17.60
2018-11-14T17:19:06.161Z,17.60
2018-11-14T17:22:09.726Z,17.80
2018-11-14T17:25:14.293Z,19.70
2018-11-14T17:28:17.913Z,18.43
2018-11-14T17:31:21.359Z,17.50
2018-11-14T17:34:24.904Z,18.47
2018-11-14T17:37:28.529Z,19.07
2018-11-14T17:40:32.337Z,17.90
2018-11-14T17:43:35.819Z,17.57
2018-11-14T17:46:39.309Z,17.07
2018-11-14T17:49:42.840Z,16.37
2018-11-14T17:52:47.242Z,16.23
2018-11-14T17:55:50.712Z,16.40
2018-11-14T17:58:54.306Z,16.37
2018-11-14T18:01:57.752Z,15.97
2018-11-14T18:05:01.216Z,16.03
2018-11-14T18:08:05.115Z,17.23
2018-11-14T18:11:08.583Z,16.70
2018-11-14T18:14:12.080Z,16.17
2018-11-14T18:17:15.581Z,16.47
2018-11-14T18:20:21.168Z,15.70
2018-11-14T18:23:24.953Z,15.80
2018-11-14T18:26:28.972Z,14.80
2018-11-14T18:29:32.883Z,14.93
2018-11-14T18:32:36.513Z,16.70
2018-11-14T18:35:40.205Z,17.15
2018-11-14T18:38:44.470Z,17.10
2018-11-14T18:41:48.752Z,16.57
2018-11-14T18:44:52.666Z,17.47
2018-11-14T18:47:57.110Z,17.70
2018-11-14T18:51:00.625Z,14.67
2018-11-14T18:54:04.173Z,15.33
2018-11-14T18:57:07.706Z,14.10
2018-11-14T19:00:14.849Z,13.40
2018-11-14T19:03:18.782Z,13.10
2018-11-14T19:06:22.321Z,13.40
2018-11-14T19:09:25.850Z,13.07
2018-11-14T19:12:29.363Z,12.37
2018-11-14T19:15:34.278Z,13.13
2018-11-14T19:18:37.969Z,11.77
2018-11-14T19:21:41.449Z,11.40
2018-11-14T19:24:45.048Z,11.97
2018-11-14T19:27:49.056Z,12.57
2018-11-14T19:30:52.656Z,14.03
2018-11-14T19:33:56.196Z,12.37
2018-11-14T19:36:59.784Z,11.97
2018-11-14T19:40:03.374Z,16.10
2018-11-14T19:43:12.408Z,15.37
2018-11-14T19:46:16.025Z,17.17
2018-11-14T19:49:20.025Z,16.53
2018-11-14T19:52:24.808Z,15.63
2018-11-14T19:55:29.477Z,16.37
2018-11-14T19:58:33.252Z,16.60
2018-11-14T20:01:37.271Z,16.67
2018-11-14T20:04:40.986Z,17.03
2018-11-14T20:07:45.228Z,18.00
2018-11-14T20:10:48.981Z,17.83
2018-11-14T20:13:53.467Z,16.23
2018-11-14T20:16:57.089Z,18.70
2018-11-14T20:20:03.035Z,16.80
2018-11-14T20:23:06.547Z,17.20
2018-11-14T20:26:10.173Z,16.70
2018-11-14T20:29:13.652Z,16.23
2018-11-14T20:32:17.328Z,17.57
2018-11-14T20:35:21.701Z,16.37
2018-11-14T20:38:25.249Z,17.40
2018-11-14T20:41:28.905Z,17.83
2018-11-14T20:44:32.548Z,17.63
2018-11-14T20:47:35.993Z,17.20
2018-11-14T20:50:40.593Z,18.20
2018-11-14T20:53:44.155Z,18.40
2018-11-14T20:56:47.682Z,17.50
2018-11-14T20:59:51.265Z,18.37
2018-11-14T21:02:56.508Z,18.80
2018-11-14T21:06:00.097Z,17.60
2018-11-14T21:09:04.667Z,18.30
2018-11-14T21:12:08.196Z,18.13
2018-11-14T21:15:14.974Z,17.63
2018-11-14T21:18:18.382Z,18.10
2018-11-14T21:21:22.089Z,18.70
2018-11-14T21:24:25.797Z,19.23
2018-11-14T21:27:29.545Z,18.83
2018-11-14T21:30:33.179Z,19.63
2018-11-14T21:33:36.745Z,18.97
2018-11-14T21:36:40.415Z,18.83
2018-11-14T21:39:44.019Z,19.07
2018-11-14T21:42:47.540Z,18.10
2018-11-14T21:45:51.175Z,19.37
2018-11-14T21:48:54.799Z,19.13
2018-11-14T21:51:59.368Z,20.83
2018-11-14T21:55:03.185Z,20.13
2018-11-14T21:58:06.914Z,20.57
2018-11-14T22:01:10.639Z,19.03
2018-11-14T22:04:16.261Z,18.90
2018-11-14T22:07:19.861Z,19.70
2018-11-14T22:10:24.186Z,19.13
2018-11-14T22:13:28.795Z,19.47
2018-11-14T22:16:32.338Z,20.40
2018-11-14T22:19:36.303Z,19.47
2018-11-14T22:22:40.532Z,19.73
2018-11-14T22:25:44.341Z,19.83
2018-11-14T22:28:47.842Z,19.20
2018-11-14T22:31:51.387Z,19.70
2018-11-14T22:34:55.016Z,20.57
2018-11-14T22:37:58.579Z,19.77
2018-11-14T22:41:03.200Z,19.60
2018-11-14T22:44:06.862Z,20.63
2018-11-14T22:47:10.432Z,20.83
2018-11-14T22:50:15.233Z,20.60
2018-11-14T22:53:18.674Z,20.70
2018-11-14T22:56:22.205Z,20.97
2018-11-14T22:59:25.770Z,20.93
2018-11-14T23:02:29.365Z,20.07
2018-11-14T23:05:32.958Z,20.47
2018-11-14T23:08:36.449Z,20.20
2018-11-14T23:11:40.131Z,19.70
2018-11-14T23:14:43.755Z,22.00
2018-11-14T23:17:47.363Z,20.30
2018-11-14T23:20:50.890Z,21.27
2018-11-14T23:23:54.432Z,21.63
2018-11-14T23:26:57.975Z,22.10
2018-11-14T23:30:01.422Z,20.30
2018-11-14T23:33:05.084Z,21.93
2018-11-14T23:36:08.587Z,21.10
2018-11-14T23:39:13.723Z,22.00
2018-11-14T23:42:17.332Z,21.00
2018-11-14T23:45:21.743Z,23.43
2018-11-14T23:48:25.257Z,22.90
2018-11-14T23:51:28.813Z,22.40
2018-11-14T23:54:32.315Z,22.00
2018-11-14T23:57:35.818Z,23.13
